Time;durP1;ratioP1;P1;durP2;ratioP2;P2;SDS_P1;SDS_P2;PMS_P1;PMS_P2;Temp;Humidity;BMP_temperature;BMP_pressure;BME280_temperature;BME280_humidity;BME280_pressure;Samples;Min_cycle;Max_cycle;Signal;HPM_P1;HPM_P2
2021/07/19 00:02:38;;;;;;;13.05;8.18;;;;;;;;;;5055376;28;20128;-65
2021/07/19 00:05:24;;;;;;;11.32;7.32;;;;;;;;;;5056169;28;20110;-65
2021/07/19 00:08:10;;;;;;;14.70;8.25;;;;;;;;;;5068934;28;20383;-65
2021/07/19 00:10:55;;;;;;;13.73;8.10;;;;;;;;;;5082364;28;20108;-65
2021/07/19 00:13:41;;;;;;;11.57;8.18;;;;;;;;;;5073425;28;20049;-65
2021/07/19 00:16:26;;;;;;;12.95;8.93;;;;;;;;;;5075045;28;20067;-65
2021/07/19 00:19:11;;;;;;;15.75;8.77;;;;;;;;;;5073438;28;20056;-65
2021/07/19 00:21:57;;;;;;;13.25;8.57;;;;;;;;;;5074281;28;20123;-65
2021/07/19 00:24:42;;;;;;;10.85;7.75;;;;;;;;;;5064846;28;20041;-64
2021/07/19 00:27:28;;;;;;;17.80;9.43;;;;;;;;;;5054779;28;20535;-65
2021/07/19 00:30:16;;;;;;;10.55;8.70;;;;;;;;;;5059649;28;20068;-65
2021/07/19 00:33:02;;;;;;;11.57;8.98;;;;;;;;;;5045222;28;20041;-64
2021/07/19 00:35:47;;;;;;;15.90;9.65;;;;;;;;;;5055870;28;20048;-65
2021/07/19 00:38:33;;;;;;;12.80;8.93;;;;;;;;;;5054543;28;20094;-64
2021/07/19 00:41:18;;;;;;;14.93;9.52;;;;;;;;;;5059930;28;20056;-65
2021/07/19 00:44:04;;;;;;;13.60;9.20;;;;;;;;;;5074361;28;20422;-65
2021/07/19 00:46:50;;;;;;;11.93;9.25;;;;;;;;;;5074480;28;20391;-65
2021/07/19 00:49:36;;;;;;;18.58;9.55;;;;;;;;;;5083103;28;20132;-64
2021/07/19 00:52:23;;;;;;;13.02;8.77;;;;;;;;;;5033632;28;20498;-65
2021/07/19 00:55:10;;;;;;;17.08;9.32;;;;;;;;;;5019248;28;20045;-64
2021/07/19 00:57:55;;;;;;;12.88;8.52;;;;;;;;;;5040144;28;20513;-64
2021/07/19 01:00:44;;;;;;;13.82;9.55;;;;;;;;;;5026284;28;20099;-65
2021/07/19 01:03:32;;;;;;;11.43;9.00;;;;;;;;;;5038975;28;20045;-65
2021/07/19 01:06:17;;;;;;;15.50;9.10;;;;;;;;;;5062476;28;20056;-64
2021/07/19 01:09:05;;;;;;;10.25;9.13;;;;;;;;;;5056204;28;20483;-65
2021/07/19 01:11:53;;;;;;;16.25;9.48;;;;;;;;;;5052935;28;20119;-65
2021/07/19 01:14:39;;;;;;;15.57;9.35;;;;;;;;;;5044840;28;20040;-64
2021/07/19 01:17:24;;;;;;;14.38;9.90;;;;;;;;;;5072301;28;20049;-65
2021/07/19 01:20:12;;;;;;;14.30;10.50;;;;;;;;;;5034635;28;20049;-65
2021/07/19 01:23:25;;;;;;;14.98;9.90;;;;;;;;;;5053689;28;20041;-65
2021/07/19 01:26:13;;;;;;;16.83;10.83;;;;;;;;;;5066755;28;20080;-64
2021/07/19 01:28:59;;;;;;;13.43;9.77;;;;;;;;;;5039432;28;20291;-64
2021/07/19 01:31:46;;;;;;;16.40;10.32;;;;;;;;;;5025381;28;20536;-64
2021/07/19 01:34:32;;;;;;;19.17;10.95;;;;;;;;;;5034783;28;20516;-65
2021/07/19 01:37:17;;;;;;;17.73;11.60;;;;;;;;;;5037963;28;20119;-65
2021/07/19 01:40:23;;;;;;;13.73;9.43;;;;;;;;;;5041594;28;20053;-65
2021/07/19 01:43:08;;;;;;;15.18;11.48;;;;;;;;;;5039657;28;20068;-65
2021/07/19 01:45:54;;;;;;;15.85;11.05;;;;;;;;;;5040165;28;20049;-65
2021/07/19 01:48:46;;;;;;;17.98;11.32;;;;;;;;;;5045161;28;20167;-65
2021/07/19 01:51:32;;;;;;;19.25;11.65;;;;;;;;;;5050932;28;20423;-65
2021/07/19 01:54:18;;;;;;;15.65;10.75;;;;;;;;;;5039474;28;20513;-65
2021/07/19 01:57:04;;;;;;;16.75;11.80;;;;;;;;;;5058425;28;20071;-65
2021/07/19 01:59:52;;;;;;;18.40;11.82;;;;;;;;;;5077724;28;20056;-65
2021/07/19 02:02:56;;;;;;;14.95;10.32;;;;;;;;;;5059555;28;20048;-65
2021/07/19 02:05:43;;;;;;;16.50;11.43;;;;;;;;;;5056646;28;20052;-65
2021/07/19 02:08:29;;;;;;;20.88;11.95;;;;;;;;;;5056715;28;20068;-65
2021/07/19 02:11:32;;;;;;;16.45;12.35;;;;;;;;;;5052649;28;20052;-65
2021/07/19 02:14:17;;;;;;;22.20;12.05;;;;;;;;;;5038704;28;20088;-65
2021/07/19 02:17:07;;;;;;;16.50;11.63;;;;;;;;;;5036483;28;20044;-65
2021/07/19 02:19:54;;;;;;;21.30;12.55;;;;;;;;;;5064141;28;20047;-65
2021/07/19 02:22:44;;;;;;;19.88;12.48;;;;;;;;;;5056509;28;20470;-65
2021/07/19 02:25:56;;;;;;;21.05;12.45;;;;;;;;;;5052629;28;20048;-65
2021/07/19 02:28:41;;;;;;;24.27;13.55;;;;;;;;;;5032657;28;20049;-65
2021/07/19 02:31:27;;;;;;;20.20;13.00;;;;;;;;;;5053594;28;20134;-65
2021/07/19 02:34:12;;;;;;;22.75;13.13;;;;;;;;;;5038636;28;20059;-65
2021/07/19 02:36:58;;;;;;;16.38;11.55;;;;;;;;;;5027876;28;20048;-65
2021/07/19 02:39:44;;;;;;;22.25;12.82;;;;;;;;;;5037416;28;20426;-65
2021/07/19 02:42:30;;;;;;;22.13;12.57;;;;;;;;;;5034516;28;20046;-65
2021/07/19 02:45:18;;;;;;;19.23;11.95;;;;;;;;;;5065865;28;20049;-65
2021/07/19 02:48:07;;;;;;;23.85;13.70;;;;;;;;;;5041583;28;20049;-65
2021/07/19 02:51:00;;;;;;;20.38;13.55;;;;;;;;;;5026159;28;20041;-65
2021/07/19 02:53:46;;;;;;;22.73;13.40;;;;;;;;;;5056925;28;20047;-65
2021/07/19 02:56:36;;;;;;;19.60;12.82;;;;;;;;;;5050427;28;20067;-65
2021/07/19 02:59:22;;;;;;;20.48;13.38;;;;;;;;;;5070791;28;20052;-65
2021/07/19 03:02:10;;;;;;;15.65;11.85;;;;;;;;;;5067340;28;20055;-64
2021/07/19 03:04:56;;;;;;;17.67;12.57;;;;;;;;;;5015914;28;20044;-64
2021/07/19 03:07:43;;;;;;;16.60;12.60;;;;;;;;;;5051557;28;20761;-64
2021/07/19 03:10:29;;;;;;;18.80;13.00;;;;;;;;;;5070908;28;20415;-64
2021/07/19 03:13:15;;;;;;;22.27;13.27;;;;;;;;;;5040320;28;20064;-64
2021/07/19 03:16:00;;;;;;;18.50;12.43;;;;;;;;;;5055146;28;20072;-64
2021/07/19 03:18:49;;;;;;;23.58;12.55;;;;;;;;;;5023115;28;20390;-64
2021/07/19 03:21:38;;;;;;;19.23;12.68;;;;;;;;;;5071586;28;20048;-64
2021/07/19 03:24:27;;;;;;;16.65;12.13;;;;;;;;;;5034228;28;20037;-63
2021/07/19 03:27:13;;;;;;;15.80;12.35;;;;;;;;;;5030993;28;20049;-63
2021/07/19 03:29:59;;;;;;;19.42;12.38;;;;;;;;;;5051006;28;20113;-64
2021/07/19 03:32:54;;;;;;;18.90;12.95;;;;;;;;;;5058674;28;20170;-64
2021/07/19 03:35:43;;;;;;;19.60;11.77;;;;;;;;;;5038566;28;20079;-64
2021/07/19 03:38:29;;;;;;;19.17;12.10;;;;;;;;;;5034989;28;20517;-64
2021/07/19 03:41:48;;;;;;;24.90;12.50;;;;;;;;;;5030255;28;20056;-65
2021/07/19 03:44:34;;;;;;;18.85;12.57;;;;;;;;;;5049695;28;20147;-64
2021/07/19 03:47:21;;;;;;;22.40;13.13;;;;;;;;;;5026953;28;20080;-65
2021/07/19 03:50:09;;;;;;;19.23;11.93;;;;;;;;;;5070263;28;20053;-64
2021/07/19 03:53:01;;;;;;;23.27;12.32;;;;;;;;;;5033748;28;20411;-64
2021/07/19 03:55:48;;;;;;;17.10;11.45;;;;;;;;;;5046460;28;20045;-65
2021/07/19 03:58:36;;;;;;;19.65;11.85;;;;;;;;;;5055944;28;20090;-65
2021/07/19 04:01:23;;;;;;;17.95;11.57;;;;;;;;;;5042403;28;20076;-65
2021/07/19 04:04:16;;;;;;;19.45;12.85;;;;;;;;;;5060115;28;20468;-65
2021/07/19 04:07:14;;;;;;;20.45;11.73;;;;;;;;;;5067485;28;20055;-65
2021/07/19 04:10:12;;;;;;;18.83;12.10;;;;;;;;;;5039824;28;20045;-65
2021/07/19 04:13:06;;;;;;;16.27;11.93;;;;;;;;;;5056292;28;20044;-65
2021/07/19 04:15:55;;;;;;;18.45;11.30;;;;;;;;;;5027082;28;20048;-65
2021/07/19 04:18:41;;;;;;;21.65;11.77;;;;;;;;;;5058382;28;20044;-65
2021/07/19 04:21:27;;;;;;;23.48;11.93;;;;;;;;;;5059598;28;20048;-65
2021/07/19 04:24:14;;;;;;;16.60;11.55;;;;;;;;;;5020293;28;20575;-65
2021/07/19 04:27:02;;;;;;;22.40;12.68;;;;;;;;;;5042816;28;20059;-65
2021/07/19 04:29:49;;;;;;;14.63;10.52;;;;;;;;;;5073855;28;20049;-65
2021/07/19 04:32:39;;;;;;;17.40;10.40;;;;;;;;;;5051599;28;20053;-65
2021/07/19 04:35:24;;;;;;;18.80;11.25;;;;;;;;;;5053598;28;20041;-65
2021/07/19 04:38:11;;;;;;;15.07;11.48;;;;;;;;;;5066461;28;20047;-65
2021/07/19 04:40:57;;;;;;;18.40;11.27;;;;;;;;;;5027794;28;20055;-65
2021/07/19 04:43:42;;;;;;;20.23;11.25;;;;;;;;;;5034339;28;20081;-65
2021/07/19 04:46:29;;;;;;;16.20;11.05;;;;;;;;;;5050939;28;20065;-65
2021/07/19 04:49:14;;;;;;;16.20;11.10;;;;;;;;;;5054324;28;20040;-65
2021/07/19 04:51:59;;;;;;;19.02;10.90;;;;;;;;;;5073298;28;20067;-65
2021/07/19 04:54:44;;;;;;;18.88;11.82;;;;;;;;;;5058871;28;20045;-65
2021/07/19 04:57:30;;;;;;;20.77;11.60;;;;;;;;;;5019725;28;20118;-65
2021/07/19 05:00:15;;;;;;;17.92;11.55;;;;;;;;;;5054102;28;20044;-65
2021/07/19 05:03:03;;;;;;;17.27;10.85;;;;;;;;;;5059231;28;20128;-65
2021/07/19 05:05:49;;;;;;;18.65;10.57;;;;;;;;;;5051697;28;20037;-65
2021/07/19 05:08:34;;;;;;;14.60;10.65;;;;;;;;;;5039283;28;20056;-64
2021/07/19 05:11:21;;;;;;;15.05;9.88;;;;;;;;;;5039883;28;20044;-65
2021/07/19 05:14:06;;;;;;;17.55;10.85;;;;;;;;;;5053874;28;20045;-64
2021/07/19 05:16:52;;;;;;;15.63;10.93;;;;;;;;;;5053699;28;20045;-66
2021/07/19 05:19:40;;;;;;;14.65;11.20;;;;;;;;;;5053447;28;20107;-64
2021/07/19 05:22:26;;;;;;;14.50;10.68;;;;;;;;;;5072796;28;20045;-64
2021/07/19 05:25:12;;;;;;;15.80;11.77;;;;;;;;;;5053826;28;20404;-64
2021/07/19 05:28:07;;;;;;;17.98;11.30;;;;;;;;;;5030401;28;20102;-64
2021/07/19 05:30:53;;;;;;;15.57;11.30;;;;;;;;;;5052035;28;20072;-67
2021/07/19 05:33:41;;;;;;;18.77;11.57;;;;;;;;;;5052592;28;20039;-66
2021/07/19 05:36:26;;;;;;;21.25;12.15;;;;;;;;;;5053282;28;20037;-66
2021/07/19 05:39:12;;;;;;;19.38;10.68;;;;;;;;;;5052721;28;20048;-66
2021/07/19 05:41:57;;;;;;;18.40;10.82;;;;;;;;;;5053537;28;20044;-66
2021/07/19 05:44:42;;;;;;;18.45;10.70;;;;;;;;;;5066375;22;22688;-62
2021/07/19 05:47:28;;;;;;;17.25;10.77;;;;;;;;;;5034760;28;20390;-62
2021/07/19 05:50:13;;;;;;;12.88;10.27;;;;;;;;;;5053193;28;20056;-62
2021/07/19 05:53:01;;;;;;;18.58;9.95;;;;;;;;;;5053289;28;20099;-63
2021/07/19 05:55:46;;;;;;;15.55;10.57;;;;;;;;;;5042152;28;20045;-63
2021/07/19 05:58:32;;;;;;;15.02;9.57;;;;;;;;;;5033382;28;20049;-63
2021/07/19 06:01:17;;;;;;;17.98;9.15;;;;;;;;;;5032921;28;20487;-63
2021/07/19 06:04:03;;;;;;;15.35;8.85;;;;;;;;;;5032957;28;20149;-65
2021/07/19 06:06:48;;;;;;;14.43;8.68;;;;;;;;;;5033391;28;20050;-63
2021/07/19 06:09:33;;;;;;;18.02;9.63;;;;;;;;;;5032759;28;20519;-64
2021/07/19 06:12:19;;;;;;;14.07;7.93;;;;;;;;;;5041047;28;20053;-63
2021/07/19 06:15:08;;;;;;;12.90;7.13;;;;;;;;;;5032425;28;20050;-63
2021/07/19 06:17:54;;;;;;;15.13;8.00;;;;;;;;;;5032484;28;20057;-63
2021/07/19 06:20:39;;;;;;;12.60;7.97;;;;;;;;;;5032574;28;20507;-63
2021/07/19 06:23:25;;;;;;;15.43;6.90;;;;;;;;;;5029814;28;20049;-63
2021/07/19 06:26:11;;;;;;;11.85;6.88;;;;;;;;;;5032296;28;20500;-63
2021/07/19 06:28:56;;;;;;;13.38;6.65;;;;;;;;;;5048585;28;20045;-63
2021/07/19 06:31:42;;;;;;;9.60;6.38;;;;;;;;;;5031358;28;20053;-63
2021/07/19 06:34:29;;;;;;;14.00;6.30;;;;;;;;;;5032351;28;20049;-63
2021/07/19 06:37:14;;;;;;;11.85;5.47;;;;;;;;;;5032169;28;20488;-63
2021/07/19 06:39:59;;;;;;;18.25;5.68;;;;;;;;;;5012527;28;20404;-63
2021/07/19 06:42:45;;;;;;;13.13;5.00;;;;;;;;;;5016438;28;20033;-63
2021/07/19 06:45:30;;;;;;;11.32;6.10;;;;;;;;;;5013077;28;20048;-63
2021/07/19 06:48:16;;;;;;;14.40;5.20;;;;;;;;;;5020119;28;20045;-64
2021/07/19 06:51:01;;;;;;;9.82;6.00;;;;;;;;;;5032060;28;20049;-64
2021/07/19 06:53:47;;;;;;;9.82;4.80;;;;;;;;;;5031394;28;20046;-64
2021/07/19 06:56:32;;;;;;;9.95;5.38;;;;;;;;;;5031305;28;20049;-64
2021/07/19 06:59:17;;;;;;;9.27;5.00;;;;;;;;;;5031916;28;20484;-64
2021/07/19 07:02:03;;;;;;;11.13;5.57;;;;;;;;;;5031850;28;20175;-64
2021/07/19 07:04:48;;;;;;;8.50;5.35;;;;;;;;;;5031022;28;20397;-65
2021/07/19 07:07:34;;;;;;;12.20;5.88;;;;;;;;;;5022853;28;20041;-64
2021/07/19 07:10:19;;;;;;;13.73;5.18;;;;;;;;;;5040802;28;20049;-63
2021/07/19 07:13:10;;;;;;;9.65;4.57;;;;;;;;;;5025816;28;20045;-64
2021/07/19 07:15:56;;;;;;;12.32;5.47;;;;;;;;;;5030380;28;20049;-63
2021/07/19 07:18:41;;;;;;;7.18;4.65;;;;;;;;;;5031652;28;20050;-64
2021/07/19 07:21:27;;;;;;;8.55;4.57;;;;;;;;;;5030979;28;20038;-64
2021/07/19 07:24:12;;;;;;;9.13;4.68;;;;;;;;;;5031228;28;20562;-63
2021/07/19 07:26:58;;;;;;;10.00;4.47;;;;;;;;;;5031577;28;20180;-63
2021/07/19 07:29:43;;;;;;;11.65;5.10;;;;;;;;;;5031418;28;20095;-63
2021/07/19 07:32:29;;;;;;;13.82;4.85;;;;;;;;;;5012150;28;20187;-65
2021/07/19 07:35:14;;;;;;;7.63;4.05;;;;;;;;;;5030713;28;20045;-63
2021/07/19 07:38:00;;;;;;;8.23;4.63;;;;;;;;;;5031821;28;20045;-64
2021/07/19 07:40:45;;;;;;;10.27;3.83;;;;;;;;;;5031329;28;20049;-63
2021/07/19 07:43:30;;;;;;;9.25;4.00;;;;;;;;;;5030200;28;20041;-63
2021/07/19 07:46:16;;;;;;;5.38;3.58;;;;;;;;;;5031249;28;20115;-63
2021/07/19 07:49:01;;;;;;;8.75;4.13;;;;;;;;;;5031737;28;20079;-63
2021/07/19 07:51:46;;;;;;;7.75;3.85;;;;;;;;;;5031146;28;20515;-64
2021/07/19 07:54:32;;;;;;;9.23;4.72;;;;;;;;;;5027995;28;20104;-64
2021/07/19 07:57:17;;;;;;;7.00;4.05;;;;;;;;;;5031369;28;20049;-64
2021/07/19 08:00:06;;;;;;;10.65;4.82;;;;;;;;;;5030613;28;20077;-64
2021/07/19 08:02:57;;;;;;;8.00;4.10;;;;;;;;;;5013373;28;20042;-65
2021/07/19 08:05:42;;;;;;;7.72;4.35;;;;;;;;;;5029745;28;20049;-64
2021/07/19 08:08:28;;;;;;;12.18;5.07;;;;;;;;;;5020457;28;20128;-65
2021/07/19 08:11:13;;;;;;;9.13;4.75;;;;;;;;;;5030845;28;20621;-65
2021/07/19 08:13:58;;;;;;;9.68;4.30;;;;;;;;;;5031472;28;20049;-65
2021/07/19 08:16:44;;;;;;;9.13;4.78;;;;;;;;;;5030712;28;20045;-65
2021/07/19 08:19:32;;;;;;;13.18;5.63;;;;;;;;;;5033239;28;20489;-65
2021/07/19 08:22:19;;;;;;;7.78;4.38;;;;;;;;;;5035084;28;20132;-65
2021/07/19 08:25:06;;;;;;;6.97;4.47;;;;;;;;;;5034175;28;20046;-65
2021/07/19 08:27:51;;;;;;;10.40;5.22;;;;;;;;;;5034827;28;20100;-66
2021/07/19 08:30:36;;;;;;;9.98;4.38;;;;;;;;;;5034279;28;20488;-66
2021/07/19 08:33:21;;;;;;;7.78;4.00;;;;;;;;;;5042186;28;20048;-74
2021/07/19 08:36:07;;;;;;;10.40;3.80;;;;;;;;;;5045606;28;20048;-75
2021/07/19 08:38:52;;;;;;;9.95;4.35;;;;;;;;;;5034530;28;20087;-72
2021/07/19 08:41:38;;;;;;;14.13;4.60;;;;;;;;;;5034147;28;20041;-75
2021/07/19 08:44:23;;;;;;;8.10;4.30;;;;;;;;;;5032883;28;20180;-71
2021/07/19 08:47:14;;;;;;;11.10;4.18;;;;;;;;;;5032246;28;20048;-71
2021/07/19 08:49:59;;;;;;;11.60;4.37;;;;;;;;;;5032936;28;20511;-71
2021/07/19 08:52:47;;;;;;;9.82;4.40;;;;;;;;;;5034211;28;20307;-70
2021/07/19 08:55:33;;;;;;;7.68;4.47;;;;;;;;;;5013792;28;20414;-70
2021/07/19 08:58:18;;;;;;;10.10;4.88;;;;;;;;;;5033105;28;20052;-64
2021/07/19 09:01:03;;;;;;;11.18;4.75;;;;;;;;;;5034290;28;20080;-64
2021/07/19 09:03:49;;;;;;;10.90;4.35;;;;;;;;;;5033781;28;20056;-63
2021/07/19 09:06:34;;;;;;;15.90;5.53;;;;;;;;;;5034127;28;20057;-64
2021/07/19 09:09:29;;;;;;;9.00;4.22;;;;;;;;;;5034040;28;20047;-63
2021/07/19 09:12:14;;;;;;;11.40;4.47;;;;;;;;;;5034042;28;20458;-64
2021/07/19 09:15:00;;;;;;;5.15;3.50;;;;;;;;;;5033971;28;20056;-64
2021/07/19 09:17:45;;;;;;;11.25;6.18;;;;;;;;;;5033983;28;20046;-64
2021/07/19 09:20:32;;;;;;;12.13;4.15;;;;;;;;;;5033782;28;20427;-64
2021/07/19 09:23:25;;;;;;;4.35;3.50;;;;;;;;;;5033892;28;20044;-65
2021/07/19 09:26:11;;;;;;;8.20;4.22;;;;;;;;;;5033801;28;20041;-64
2021/07/19 09:28:59;;;;;;;6.22;3.85;;;;;;;;;;5033733;28;20479;-64
2021/07/19 09:31:45;;;;;;;9.18;4.40;;;;;;;;;;5033179;28;20150;-64
2021/07/19 09:34:32;;;;;;;8.73;3.85;;;;;;;;;;5033810;28;20060;-64
2021/07/19 09:37:17;;;;;;;6.25;3.78;;;;;;;;;;5033600;28;20041;-64
2021/07/19 09:40:02;;;;;;;5.05;3.58;;;;;;;;;;5033432;28;20045;-63
2021/07/19 09:42:47;;;;;;;12.85;4.50;;;;;;;;;;5032662;28;20041;-64
2021/07/19 09:45:33;;;;;;;7.35;3.65;;;;;;;;;;5033352;28;20407;-64
2021/07/19 09:48:22;;;;;;;7.90;4.00;;;;;;;;;;5033378;28;20056;-63
2021/07/19 09:51:07;;;;;;;6.57;3.88;;;;;;;;;;5033360;28;20046;-65
2021/07/19 09:53:52;;;;;;;6.38;3.33;;;;;;;;;;5033743;28;20049;-65
2021/07/19 09:56:38;;;;;;;8.75;3.47;;;;;;;;;;5033196;28;20045;-64
2021/07/19 09:59:23;;;;;;;5.55;3.42;;;;;;;;;;5033020;28;20049;-64
2021/07/19 10:02:08;;;;;;;5.60;3.47;;;;;;;;;;5032288;28;20127;-64
2021/07/19 10:04:53;;;;;;;7.38;3.70;;;;;;;;;;5033047;28;20057;-64
2021/07/19 10:07:45;;;;;;;7.72;3.80;;;;;;;;;;5032985;28;20510;-64
2021/07/19 10:10:33;;;;;;;14.15;4.63;;;;;;;;;;5032742;28;20048;-64
2021/07/19 10:13:19;;;;;;;10.43;4.03;;;;;;;;;;5032989;28;20056;-64
2021/07/19 10:16:05;;;;;;;10.23;3.78;;;;;;;;;;5033028;28;20041;-63
2021/07/19 10:18:51;;;;;;;8.70;3.97;;;;;;;;;;5032870;28;20400;-64
2021/07/19 10:21:36;;;;;;;6.35;3.78;;;;;;;;;;5032533;28;20048;-64
2021/07/19 10:24:21;;;;;;;10.32;3.22;;;;;;;;;;5032697;28;20128;-63
2021/07/19 10:27:07;;;;;;;6.65;3.42;;;;;;;;;;5032843;28;20049;-64
2021/07/19 10:29:52;;;;;;;7.75;4.18;;;;;;;;;;5032367;28;20536;-65
2021/07/19 10:32:38;;;;;;;6.18;3.58;;;;;;;;;;5032429;28;20052;-64
2021/07/19 10:35:27;;;;;;;8.13;4.15;;;;;;;;;;5032521;28;20130;-65
2021/07/19 10:38:18;;;;;;;9.63;3.30;;;;;;;;;;5031375;28;20521;-65
2021/07/19 10:41:03;;;;;;;7.55;3.70;;;;;;;;;;5030979;28;20041;-64
2021/07/19 10:43:58;;;;;;;6.90;3.47;;;;;;;;;;5031537;28;20064;-64
2021/07/19 10:46:43;;;;;;;9.88;4.25;;;;;;;;;;5032119;28;20042;-64
2021/07/19 10:49:33;;;;;;;5.10;3.95;;;;;;;;;;5032308;28;20424;-64
2021/07/19 10:52:18;;;;;;;8.73;4.25;;;;;;;;;;5032347;28;20049;-64
2021/07/19 10:55:04;;;;;;;5.75;3.28;;;;;;;;;;5032124;28;20169;-64
2021/07/19 10:57:49;;;;;;;7.93;4.20;;;;;;;;;;5032320;28;20052;-64
2021/07/19 11:00:44;;;;;;;6.38;2.88;;;;;;;;;;5031113;28;20052;-64
2021/07/19 11:03:38;;;;;;;7.30;3.67;;;;;;;;;;5031132;28;20045;-64
2021/07/19 11:06:32;;;;;;;8.05;3.65;;;;;;;;;;5031960;28;20518;-64
2021/07/19 11:09:20;;;;;;;13.10;4.30;;;;;;;;;;5031998;28;20507;-64
2021/07/19 11:12:07;;;;;;;7.70;4.03;;;;;;;;;;5031923;28;20048;-64
2021/07/19 11:14:55;;;;;;;6.47;3.83;;;;;;;;;;5031877;28;20570;-64
2021/07/19 11:17:41;;;;;;;5.35;3.20;;;;;;;;;;5031871;28;20037;-65
2021/07/19 11:20:26;;;;;;;8.30;3.60;;;;;;;;;;5031601;28;20041;-65
2021/07/19 11:23:11;;;;;;;7.47;4.13;;;;;;;;;;5031105;28;20476;-64
2021/07/19 11:25:57;;;;;;;10.70;3.88;;;;;;;;;;5031900;28;20052;-64
2021/07/19 11:28:43;;;;;;;7.30;3.75;;;;;;;;;;5031829;28;20095;-64
2021/07/19 11:31:28;;;;;;;8.43;3.70;;;;;;;;;;5031677;28;20057;-64
2021/07/19 11:34:14;;;;;;;6.93;3.22;;;;;;;;;;5031831;28;20506;-64
2021/07/19 11:36:59;;;;;;;5.40;3.70;;;;;;;;;;5030712;28;20052;-64
2021/07/19 11:39:45;;;;;;;6.35;3.65;;;;;;;;;;5031718;28;20131;-64
2021/07/19 11:42:31;;;;;;;6.25;3.90;;;;;;;;;;5031779;28;20048;-64
2021/07/19 11:45:17;;;;;;;5.50;3.97;;;;;;;;;;5046974;22;20052;-63
2021/07/19 11:48:06;;;;;;;5.88;4.25;;;;;;;;;;5031761;28;20045;-63
2021/07/19 11:50:56;;;;;;;6.25;4.15;;;;;;;;;;5017020;28;20056;-63
2021/07/19 11:53:43;;;;;;;6.40;4.65;;;;;;;;;;5033309;28;20056;-63
2021/07/19 11:56:29;;;;;;;16.88;5.68;;;;;;;;;;5035749;28;20060;-64
2021/07/19 11:59:14;;;;;;;6.03;5.03;;;;;;;;;;5035589;28;20057;-63
2021/07/19 12:02:00;;;;;;;8.43;5.78;;;;;;;;;;5020640;28;20060;-64
2021/07/19 12:04:45;;;;;;;6.50;4.57;;;;;;;;;;5035488;28;20180;-64
2021/07/19 12:07:31;;;;;;;7.28;5.03;;;;;;;;;;5035499;28;20175;-64
2021/07/19 12:10:16;;;;;;;7.15;5.20;;;;;;;;;;5035059;28;20120;-64
2021/07/19 12:13:14;;;;;;;11.98;5.90;;;;;;;;;;5035254;28;20051;-63
2021/07/19 12:15:59;;;;;;;8.63;4.85;;;;;;;;;;5035115;28;20057;-64
2021/07/19 12:18:48;;;;;;;5.85;5.20;;;;;;;;;;5034957;28;20045;-64
2021/07/19 12:21:41;;;;;;;6.25;5.22;;;;;;;;;;5034930;28;20049;-64
2021/07/19 12:24:27;;;;;;;8.18;5.30;;;;;;;;;;5035082;28;20045;-64
2021/07/19 12:27:12;;;;;;;7.90;5.40;;;;;;;;;;5034918;28;20076;-64
2021/07/19 12:29:58;;;;;;;10.18;6.28;;;;;;;;;;5034568;28;20522;-64
2021/07/19 12:32:43;;;;;;;6.82;4.90;;;;;;;;;;5034850;28;20495;-64
2021/07/19 12:35:31;;;;;;;7.18;5.50;;;;;;;;;;5034710;28;20045;-64
2021/07/19 12:38:17;;;;;;;7.65;6.78;;;;;;;;;;5020482;28;20044;-64
2021/07/19 12:41:02;;;;;;;10.68;6.95;;;;;;;;;;5034583;28;20055;-64
2021/07/19 12:43:47;;;;;;;10.80;7.15;;;;;;;;;;5019830;28;20349;-64
2021/07/19 12:46:32;;;;;;;12.30;6.85;;;;;;;;;;5034488;28;20072;-64
2021/07/19 12:49:25;;;;;;;7.85;6.75;;;;;;;;;;5034587;28;20055;-64
2021/07/19 12:52:11;;;;;;;15.32;7.18;;;;;;;;;;5034369;28;20128;-64
2021/07/19 12:54:59;;;;;;;10.07;6.78;;;;;;;;;;5034509;28;20057;-64
2021/07/19 12:57:51;;;;;;;10.55;6.25;;;;;;;;;;5034379;28;20095;-64
2021/07/19 13:00:36;;;;;;;10.50;7.93;;;;;;;;;;5034122;28;20045;-64
2021/07/19 13:03:28;;;;;;;9.60;6.93;;;;;;;;;;5034393;28;20047;-64
2021/07/19 13:06:14;;;;;;;;;;;;;;;;;;5034538;28;20037;-64
2021/07/19 13:08:59;;;;;;;8.55;6.53;;;;;;;;;;5034121;28;19963;-64
2021/07/19 13:11:44;;;;;;;10.95;7.07;;;;;;;;;;5034029;28;20037;-64
2021/07/19 13:14:45;;;;;;;7.95;6.22;;;;;;;;;;5034061;28;20045;-63
2021/07/19 13:17:32;;;;;;;7.85;6.15;;;;;;;;;;5034019;28;20483;-63
2021/07/19 13:20:17;;;;;;;10.05;7.40;;;;;;;;;;5033941;28;20135;-63
2021/07/19 13:23:12;;;;;;;9.27;6.90;;;;;;;;;;5033845;28;20052;-64
2021/07/19 13:26:04;;;;;;;8.50;6.45;;;;;;;;;;5034009;28;20408;-64
2021/07/19 13:28:50;;;;;;;15.48;7.32;;;;;;;;;;5033828;28;20046;-64
2021/07/19 13:31:36;;;;;;;10.52;6.82;;;;;;;;;;5033473;28;20087;-64
2021/07/19 13:34:21;;;;;;;7.75;6.68;;;;;;;;;;5033723;28;20046;-64
2021/07/19 13:37:07;;;;;;;10.00;6.57;;;;;;;;;;5033722;28;20045;-64
2021/07/19 13:39:52;;;;;;;9.05;7.15;;;;;;;;;;5033390;28;20060;-64
2021/07/19 13:42:38;;;;;;;10.95;6.18;;;;;;;;;;5033738;28;20049;-64
2021/07/19 13:45:23;;;;;;;8.75;6.10;;;;;;;;;;5033398;28;20052;-64
2021/07/19 13:48:08;;;;;;;10.00;7.32;;;;;;;;;;5033597;28;20054;-65
2021/07/19 13:50:54;;;;;;;10.30;6.28;;;;;;;;;;5033137;28;20479;-64
2021/07/19 13:53:39;;;;;;;8.05;5.80;;;;;;;;;;5033359;28;20426;-64
2021/07/19 13:56:25;;;;;;;7.57;5.97;;;;;;;;;;5033190;28;20530;-64
2021/07/19 13:59:10;;;;;;;12.77;6.13;;;;;;;;;;5033309;28;20056;-63
2021/07/19 14:01:55;;;;;;;10.38;5.97;;;;;;;;;;5033282;28;20176;-63
2021/07/19 14:04:41;;;;;;;11.07;5.70;;;;;;;;;;5033044;28;20056;-63
2021/07/19 14:07:26;;;;;;;8.82;5.50;;;;;;;;;;5033444;28;20056;-63
2021/07/19 14:10:12;;;;;;;11.30;6.68;;;;;;;;;;5033122;28;20061;-63
2021/07/19 14:12:57;;;;;;;9.10;6.70;;;;;;;;;;5033069;28;20136;-64
2021/07/19 14:15:43;;;;;;;10.07;6.68;;;;;;;;;;5032857;28;20045;-63
2021/07/19 14:18:28;;;;;;;10.52;6.00;;;;;;;;;;5033153;28;20055;-63
2021/07/19 14:21:13;;;;;;;13.82;7.03;;;;;;;;;;5032682;28;20107;-63
2021/07/19 14:24:00;;;;;;;6.90;5.43;;;;;;;;;;5032969;28;20494;-64
2021/07/19 14:26:46;;;;;;;10.30;7.28;;;;;;;;;;5033795;28;20049;-64
2021/07/19 14:29:32;;;;;;;9.32;6.95;;;;;;;;;;5033286;28;20103;-64
2021/07/19 14:32:18;;;;;;;8.40;6.43;;;;;;;;;;5033725;28;20053;-64
2021/07/19 14:35:04;;;;;;;9.50;6.57;;;;;;;;;;5033569;28;20123;-64
2021/07/19 14:37:49;;;;;;;8.52;6.28;;;;;;;;;;5033426;28;20127;-64
2021/07/19 14:40:35;;;;;;;10.02;6.50;;;;;;;;;;5032764;28;20055;-64
2021/07/19 14:43:20;;;;;;;10.65;7.35;;;;;;;;;;5032574;28;20045;-65
2021/07/19 14:46:09;;;;;;;9.85;6.80;;;;;;;;;;5033000;28;20066;-64
2021/07/19 14:48:54;;;;;;;9.65;7.15;;;;;;;;;;5032563;28;20045;-64
2021/07/19 14:51:39;;;;;;;11.68;6.95;;;;;;;;;;5032206;28;20060;-64
2021/07/19 14:54:25;;;;;;;10.45;7.00;;;;;;;;;;5032551;28;20518;-64
2021/07/19 14:57:12;;;;;;;9.05;6.40;;;;;;;;;;5032910;28;20061;-63
2021/07/19 14:59:57;;;;;;;10.77;7.28;;;;;;;;;;5032100;28;20052;-64
2021/07/19 15:02:42;;;;;;;10.25;6.78;;;;;;;;;;5032353;28;20132;-63
2021/07/19 15:05:28;;;;;;;12.30;7.25;;;;;;;;;;5032041;28;20053;-63
2021/07/19 15:08:13;;;;;;;11.50;8.27;;;;;;;;;;5032234;28;20414;-63
2021/07/19 15:10:59;;;;;;;11.00;7.70;;;;;;;;;;5031885;28;20059;-64
2021/07/19 15:13:44;;;;;;;11.65;8.35;;;;;;;;;;5031987;28;20125;-64
2021/07/19 15:16:30;;;;;;;10.73;9.38;;;;;;;;;;5032458;28;20050;-64
2021/07/19 15:19:15;;;;;;;13.73;9.45;;;;;;;;;;5032560;28;20407;-64
2021/07/19 15:22:01;;;;;;;11.95;9.25;;;;;;;;;;5032420;28;20054;-64
2021/07/19 15:24:46;;;;;;;14.25;9.77;;;;;;;;;;5031964;28;20422;-63
2021/07/19 15:27:32;;;;;;;9.70;7.82;;;;;;;;;;5031994;28;20120;-63
2021/07/19 15:30:18;;;;;;;14.60;9.40;;;;;;;;;;5035807;28;20060;-63
2021/07/19 15:33:03;;;;;;;15.90;9.80;;;;;;;;;;5036375;28;20061;-63
2021/07/19 15:35:48;;;;;;;10.65;8.43;;;;;;;;;;5036047;28;20241;-64
2021/07/19 15:38:34;;;;;;;12.23;9.32;;;;;;;;;;5035812;28;20054;-63
2021/07/19 15:41:19;;;;;;;14.07;11.05;;;;;;;;;;5035762;28;20137;-64
2021/07/19 15:44:05;;;;;;;11.93;10.43;;;;;;;;;;5035967;28;20046;-64
2021/07/19 15:46:50;;;;;;;10.82;8.52;;;;;;;;;;5035683;28;20144;-63
2021/07/19 15:49:36;;;;;;;10.70;8.98;;;;;;;;;;5035752;28;20061;-63
2021/07/19 15:52:21;;;;;;;9.63;8.60;;;;;;;;;;5036765;28;20688;-64
2021/07/19 15:55:07;;;;;;;12.15;8.80;;;;;;;;;;5036234;28;20049;-64
2021/07/19 15:57:52;;;;;;;14.85;7.78;;;;;;;;;;5036542;28;20049;-64
2021/07/19 16:00:37;;;;;;;9.77;8.60;;;;;;;;;;5035951;28;20073;-64
2021/07/19 16:03:23;;;;;;;10.45;7.63;;;;;;;;;;5036014;28;20054;-64
2021/07/19 16:06:08;;;;;;;9.02;7.43;;;;;;;;;;5036327;28;20045;-64
2021/07/19 16:08:56;;;;;;;9.85;7.28;;;;;;;;;;5036146;28;20526;-63
2021/07/19 16:11:41;;;;;;;10.07;8.02;;;;;;;;;;5036580;28;20646;-63
2021/07/19 16:14:27;;;;;;;11.30;8.35;;;;;;;;;;5037195;28;20059;-64
2021/07/19 16:17:13;;;;;;;10.48;8.88;;;;;;;;;;5037194;28;20199;-63
2021/07/19 16:19:58;;;;;;;10.70;8.68;;;;;;;;;;5036926;28;20046;-63
2021/07/19 16:22:44;;;;;;;9.48;8.35;;;;;;;;;;5035363;28;20056;-63
2021/07/19 16:25:29;;;;;;;13.43;9.50;;;;;;;;;;5035108;28;20164;-64
2021/07/19 16:28:14;;;;;;;13.32;9.77;;;;;;;;;;5035093;28;20055;-63